Time;durP1;ratioP1;P1;durP2;ratioP2;P2;SDS_P1;SDS_P2;PMS_P1;PMS_P2;Temp;Humidity;BMP_temperature;BMP_pressure;BME280_temperature;BME280_humidity;BME280_pressure;Samples;Min_cycle;Max_cycle;Signal;HPM_P1;HPM_P2
2024/04/08 00:00:03;;;;;;;0.90;0.90;;;18.20;51.70;213.40;229858.00;;;;5452767;26;20238;-59
2024/04/08 00:02:32;;;;;;;1.00;0.93;;;18.10;51.70;213.40;229858.00;;;;5452929;26;20567;-58
2024/04/08 00:05:01;;;;;;;1.20;1.10;;;18.20;51.70;213.40;229858.00;;;;5445514;26;20688;-59
2024/04/08 00:07:27;;;;;;;1.00;1.00;;;18.20;51.80;213.40;229858.00;;;;5452132;26;20361;-58
2024/04/08 00:09:55;;;;;;;0.93;0.93;;;18.10;51.80;213.40;229858.00;;;;5451974;26;20249;-59
2024/04/08 00:12:21;;;;;;;0.77;0.77;;;18.20;51.80;213.40;229858.00;;;;5452465;26;20310;-58
2024/04/08 00:14:50;;;;;;;1.33;0.90;;;18.20;51.80;213.40;229858.00;;;;5452859;26;20234;-59
2024/04/08 00:17:16;;;;;;;0.80;0.80;;;18.20;51.70;213.40;229858.00;;;;5452236;26;20334;-59
2024/04/08 00:19:47;;;;;;;0.73;0.73;;;18.20;51.80;213.40;229858.00;;;;5449868;26;20666;-58
2024/04/08 00:22:13;;;;;;;1.37;0.90;;;18.20;51.80;213.40;229858.00;;;;5452654;26;20290;-59
2024/04/08 00:24:42;;;;;;;1.03;1.03;;;18.10;51.80;213.40;229858.00;;;;5453105;26;20330;-58
2024/04/08 00:27:08;;;;;;;1.23;1.10;;;18.10;51.70;213.40;229858.00;;;;5450654;26;20289;-59
2024/04/08 00:29:37;;;;;;;0.90;0.90;;;18.10;51.80;213.40;229858.00;;;;5452625;26;20238;-58
2024/04/08 00:32:04;;;;;;;1.00;0.97;;;18.10;51.80;213.40;229858.00;;;;5452536;26;20306;-58
2024/04/08 00:34:32;;;;;;;1.40;1.20;;;18.10;51.80;213.40;229858.00;;;;5445164;26;20286;-58
2024/04/08 00:37:01;;;;;;;1.10;1.00;;;18.10;51.80;213.40;229858.00;;;;5452256;26;20293;-58
2024/04/08 00:39:30;;;;;;;1.07;1.07;;;18.10;51.80;213.40;229858.00;;;;5452302;26;20359;-58
2024/04/08 00:41:56;;;;;;;1.40;1.07;;;18.10;51.80;213.40;229858.00;;;;5450265;26;20302;-58
2024/04/08 00:44:24;;;;;;;0.93;0.93;;;18.10;51.80;213.40;229858.00;;;;5452095;26;20294;-58
2024/04/08 00:46:51;;;;;;;1.23;1.13;;;18.10;51.80;213.40;229858.00;;;;5451972;26;20363;-59
2024/04/08 00:49:21;;;;;;;0.90;0.90;;;18.10;51.80;213.40;229858.00;;;;5447261;26;20231;-58
2024/04/08 00:51:47;;;;;;;0.90;0.90;;;18.10;51.80;213.40;229858.00;;;;5452405;26;20280;-59
2024/04/08 00:54:19;;;;;;;0.97;0.90;;;18.10;51.80;213.40;229858.00;;;;5452313;26;20306;-58
2024/04/08 00:56:46;;;;;;;0.80;0.80;;;18.10;51.80;213.40;229858.00;;;;5448816;26;20332;-58
2024/04/08 00:59:17;;;;;;;1.63;1.20;;;18.10;51.80;213.40;229858.00;;;;5451508;26;20238;-58
2024/04/08 01:01:43;;;;;;;1.30;1.10;;;18.10;51.80;213.40;229858.00;;;;5452247;26;20363;-58
2024/04/08 01:04:13;;;;;;;0.90;0.90;;;18.10;51.80;213.40;229858.00;;;;5450746;26;20300;-58
2024/04/08 01:06:39;;;;;;;1.20;1.10;;;18.10;51.80;213.40;229858.00;;;;5451060;26;20287;-58
2024/04/08 01:09:08;;;;;;;1.10;1.00;;;18.10;51.80;213.40;229858.00;;;;5450609;26;20350;-58
2024/04/08 01:11:37;;;;;;;1.07;0.90;;;18.10;51.80;213.40;229858.00;;;;5449804;26;20238;-58
2024/04/08 01:14:06;;;;;;;0.97;0.93;;;18.00;51.70;213.40;229858.00;;;;5451757;26;20311;-59
2024/04/08 01:16:32;;;;;;;2.00;1.00;;;18.00;51.70;213.40;229858.00;;;;5451758;26;20289;-58
2024/04/08 01:19:00;;;;;;;0.90;0.90;;;18.00;51.80;213.40;229858.00;;;;5449223;26;20246;-59
2024/04/08 01:21:26;;;;;;;1.00;1.00;;;18.00;51.80;213.40;229858.00;;;;5451076;26;20294;-58
2024/04/08 01:23:58;;;;;;;1.03;1.00;;;18.00;51.70;213.40;229858.00;;;;5451849;26;20238;-58
2024/04/08 01:26:24;;;;;;;1.00;0.90;;;18.00;51.80;213.40;229858.00;;;;5448337;26;20387;-58
2024/04/08 01:28:52;;;;;;;0.90;0.90;;;18.00;51.80;213.40;229858.00;;;;5450655;26;20276;-58
2024/04/08 01:31:18;;;;;;;1.07;1.00;;;18.00;51.80;213.40;229858.00;;;;5451412;26;20310;-59
2024/04/08 01:33:47;;;;;;;1.00;1.00;;;18.00;51.80;213.40;229858.00;;;;5451947;26;20315;-58
2024/04/08 01:36:14;;;;;;;0.80;0.80;;;18.00;51.80;213.40;229858.00;;;;5438101;26;20286;-58
2024/04/08 01:38:43;;;;;;;0.90;0.90;;;18.00;51.80;213.40;229858.00;;;;5450519;26;20230;-58
2024/04/08 01:41:12;;;;;;;0.90;0.90;;;18.00;51.80;213.40;229858.00;;;;5448089;26;20301;-58
2024/04/08 01:43:40;;;;;;;1.00;0.90;;;18.00;51.80;213.40;229858.00;;;;5451660;26;20601;-59
2024/04/08 01:46:07;;;;;;;1.10;1.00;;;18.00;51.80;213.40;229858.00;;;;5451421;26;20844;-58
2024/04/08 01:48:35;;;;;;;1.60;0.80;;;18.00;51.80;213.40;229858.00;;;;5450525;26;20334;-58
2024/04/08 01:51:01;;;;;;;1.10;1.00;;;18.00;51.80;213.40;229858.00;;;;5437631;26;20301;-58
2024/04/08 01:53:30;;;;;;;0.73;0.73;;;18.00;51.80;213.40;229858.00;;;;5451514;26;20273;-58
2024/04/08 01:55:56;;;;;;;0.83;0.83;;;17.90;51.80;213.40;229858.00;;;;5447960;26;20286;-58
2024/04/08 01:58:27;;;;;;;0.83;0.70;;;18.00;51.80;213.40;229858.00;;;;5450270;26;20250;-58
2024/04/08 02:00:53;;;;;;;0.80;0.80;;;17.90;51.80;213.40;229858.00;;;;5451225;26;20791;-59
2024/04/08 02:03:22;;;;;;;0.90;0.90;;;18.00;51.90;213.40;229858.00;;;;5450969;26;20238;-58
2024/04/08 02:05:48;;;;;;;1.20;0.90;;;18.00;51.80;213.40;229858.00;;;;5440881;26;20351;-58
2024/04/08 02:08:16;;;;;;;1.10;1.00;;;18.00;51.80;213.40;229858.00;;;;5450196;26;20280;-59
2024/04/08 02:10:43;;;;;;;0.80;0.80;;;18.00;51.90;213.40;229858.00;;;;5449533;26;20375;-58
2024/04/08 02:13:12;;;;;;;1.20;1.10;;;18.00;51.90;213.40;229858.00;;;;5450873;26;20239;-58
2024/04/08 02:15:41;;;;;;;1.27;1.17;;;18.00;51.80;213.40;229858.00;;;;5450758;26;20286;-58
2024/04/08 02:18:10;;;;;;;0.80;0.80;;;17.90;51.90;213.40;229858.00;;;;5442699;26;20274;-58
2024/04/08 02:20:37;;;;;;;1.10;1.00;;;17.90;51.90;213.40;229858.00;;;;5454246;26;20237;-58
2024/04/08 02:23:06;;;;;;;0.97;0.90;;;17.90;51.90;213.40;229858.00;;;;5454488;26;20575;-58
2024/04/08 02:25:37;;;;;;;0.90;0.90;;;17.90;51.90;213.40;229858.00;;;;5450038;26;20290;-58
2024/04/08 02:28:06;;;;;;;0.90;0.90;;;17.90;51.90;213.40;229858.00;;;;5453403;26;20234;-58
2024/04/08 02:30:35;;;;;;;1.10;0.90;;;17.90;51.90;213.40;229858.00;;;;5454112;26;20289;-58
2024/04/08 02:33:08;;;;;;;0.97;0.97;;;17.90;51.90;213.40;229858.00;;;;5454551;26;20340;-58
2024/04/08 02:35:34;;;;;;;0.97;0.87;;;17.90;51.90;213.40;229858.00;;;;5449438;26;20238;-58
2024/04/08 02:38:04;;;;;;;0.90;0.90;;;17.90;51.90;213.40;229858.00;;;;5453078;26;20246;-58
2024/04/08 02:40:32;;;;;;;1.13;1.07;;;17.90;51.90;213.40;229858.00;;;;5449739;26;20620;-58
2024/04/08 02:43:01;;;;;;;0.93;0.90;;;17.90;51.90;213.40;229858.00;;;;5453891;26;20293;-58
2024/04/08 02:45:27;;;;;;;0.90;0.90;;;17.90;51.90;213.40;229858.00;;;;5453944;26;20298;-58
2024/04/08 02:47:55;;;;;;;1.30;1.10;;;17.90;51.90;213.40;229858.00;;;;5446442;26;20273;-59
2024/04/08 02:50:24;;;;;;;1.20;1.10;;;17.90;51.90;213.40;229858.00;;;;5450795;26;20306;-58
2024/04/08 02:52:53;;;;;;;1.00;0.90;;;17.90;51.90;213.40;229858.00;;;;5454223;26;20281;-58
2024/04/08 02:55:19;;;;;;;1.13;1.03;;;17.90;51.90;213.40;229858.00;;;;5448706;26;20294;-59
2024/04/08 02:57:48;;;;;;;0.93;0.90;;;17.90;51.90;213.40;229858.00;;;;5452968;26;20843;-58
2024/04/08 03:00:14;;;;;;;0.90;0.90;;;17.80;51.80;213.40;229858.00;;;;5453461;26;20298;-58
2024/04/08 03:02:46;;;;;;;1.07;0.97;;;17.90;51.90;213.40;229858.00;;;;5453790;26;20739;-58
2024/04/08 03:05:13;;;;;;;1.57;1.10;;;17.90;51.90;213.40;229858.00;;;;5449964;26;20250;-58
2024/04/08 03:07:44;;;;;;;0.77;0.77;;;17.80;51.80;213.40;229858.00;;;;5452752;26;20347;-58
2024/04/08 03:10:10;;;;;;;1.10;1.00;;;17.90;51.90;213.40;229858.00;;;;5448548;26;20943;-58
2024/04/08 03:12:38;;;;;;;1.37;1.00;;;17.80;51.80;213.40;229858.00;;;;5453309;26;20238;-59
2024/04/08 03:15:05;;;;;;;2.00;1.20;;;17.90;51.90;213.40;229858.00;;;;5453604;26;20297;-58
2024/04/08 03:17:34;;;;;;;1.00;1.00;;;17.80;51.80;213.40;229858.00;;;;5452623;26;20238;-58
2024/04/08 03:20:00;;;;;;;1.27;1.00;;;17.80;51.90;213.40;229858.00;;;;5446567;26;20231;-59
2024/04/08 03:22:28;;;;;;;1.00;1.00;;;17.80;51.80;213.40;229858.00;;;;5450722;26;20273;-58
2024/04/08 03:24:57;;;;;;;1.07;1.07;;;17.80;51.90;213.40;229858.00;;;;5452316;26;20242;-59
2024/04/08 03:27:26;;;;;;;0.93;0.90;;;17.80;51.90;213.40;229858.00;;;;5449353;26;20879;-58
2024/04/08 03:29:52;;;;;;;1.20;1.10;;;17.80;51.90;213.40;229858.00;;;;5452660;26;21035;-58
2024/04/08 03:32:21;;;;;;;1.00;1.00;;;17.80;51.90;213.40;229858.00;;;;5453262;26;20323;-58
2024/04/08 03:34:46;;;;;;;1.13;1.07;;;17.80;51.90;213.40;229858.00;;;;5451709;26;20301;-58
2024/04/08 03:37:15;;;;;;;1.20;1.10;;;17.80;51.90;213.40;229858.00;;;;5452639;26;20237;-58
2024/04/08 03:39:44;;;;;;;1.07;1.03;;;17.80;51.90;213.40;229858.00;;;;5452806;26;20290;-58
2024/04/08 03:42:15;;;;;;;1.83;1.20;;;17.80;51.90;213.40;229858.00;;;;5447897;26;20238;-58
2024/04/08 03:44:44;;;;;;;0.80;0.80;;;17.80;51.90;213.40;229858.00;;;;5453212;26;20293;-58
2024/04/08 03:47:10;;;;;;;1.10;1.00;;;17.80;51.90;213.40;229858.00;;;;5452535;26;20230;-58
2024/04/08 03:49:38;;;;;;;0.97;0.87;;;17.80;51.90;213.40;229858.00;;;;5439824;26;20806;-58
2024/04/08 03:52:04;;;;;;;1.07;0.93;;;17.80;51.90;213.40;229858.00;;;;5452978;26;20301;-58
2024/04/08 03:54:33;;;;;;;1.03;1.03;;;17.80;51.90;213.40;229858.00;;;;5453053;26;20657;-58
2024/04/08 03:56:59;;;;;;;1.27;1.17;;;17.80;51.90;213.40;229858.00;;;;5447226;26;20831;-58
2024/04/08 03:59:30;;;;;;;0.83;0.83;;;17.80;51.90;213.40;229858.00;;;;5452445;26;20246;-58
2024/04/08 04:01:56;;;;;;;1.07;1.00;;;17.80;51.90;213.40;229858.00;;;;5453208;26;20238;-58
2024/04/08 04:04:25;;;;;;;1.00;1.00;;;17.70;51.90;213.40;229858.00;;;;5448733;26;20272;-58
2024/04/08 04:06:51;;;;;;;1.63;1.23;;;17.70;51.90;213.40;229858.00;;;;5452329;26;20242;-59
2024/04/08 04:09:20;;;;;;;1.13;1.03;;;17.70;51.90;213.40;229858.00;;;;5452392;26;20276;-58
2024/04/08 04:11:46;;;;;;;1.23;1.10;;;17.70;51.90;213.40;229858.00;;;;5447182;26;20698;-58
2024/04/08 04:14:14;;;;;;;0.90;0.90;;;17.70;52.00;213.40;229858.00;;;;5453023;26;20280;-58
2024/04/08 04:16:43;;;;;;;0.93;0.93;;;17.70;52.00;213.40;229858.00;;;;5453035;26;20230;-58
2024/04/08 04:19:11;;;;;;;1.40;1.00;;;17.80;51.90;213.40;229858.00;;;;5451927;26;20622;-58
2024/04/08 04:21:37;;;;;;;0.97;0.97;;;17.70;52.00;213.40;229858.00;;;;5438692;26;20353;-58
2024/04/08 04:24:07;;;;;;;1.30;1.20;;;17.70;52.00;213.40;229858.00;;;;5452518;26;20254;-58
2024/04/08 04:26:33;;;;;;;1.07;1.00;;;17.70;52.00;213.40;229858.00;;;;5446417;26;20364;-58
2024/04/08 04:29:01;;;;;;;1.13;1.03;;;17.70;52.00;213.40;229858.00;;;;5452040;26;20339;-58
2024/04/08 04:31:44;;;;;;;1.10;1.00;;;17.70;52.00;213.40;229858.00;;;;5452489;26;20309;-59
2024/04/08 04:34:12;;;;;;;0.90;0.90;;;17.70;52.00;213.40;229858.00;;;;5440416;26;20234;-59
2024/04/08 04:36:38;;;;;;;1.03;1.00;;;17.70;52.00;213.40;229858.00;;;;5452604;26;20302;-58
2024/04/08 04:39:09;;;;;;;1.10;1.00;;;17.70;52.00;213.40;229858.00;;;;5451572;26;20242;-58
2024/04/08 04:41:35;;;;;;;1.97;1.30;;;17.70;52.00;213.40;229858.00;;;;5444072;26;20310;-58
2024/04/08 04:44:04;;;;;;;0.90;0.90;;;17.70;52.00;213.40;229858.00;;;;5451972;26;20339;-58
2024/04/08 04:46:30;;;;;;;0.90;0.90;;;17.70;52.00;213.40;229858.00;;;;5452675;26;20606;-58
2024/04/08 04:49:01;;;;;;;1.80;1.13;;;17.70;52.00;213.40;229858.00;;;;5451510;26;20234;-58
2024/04/08 04:51:27;;;;;;;0.97;0.97;;;17.70;52.00;213.40;229858.00;;;;5449795;26;20277;-58
2024/04/08 04:53:56;;;;;;;0.97;0.97;;;17.70;52.00;213.40;229858.00;;;;5452267;26;20230;-58
2024/04/08 04:56:22;;;;;;;1.23;0.90;;;17.70;52.00;213.40;229858.00;;;;5444455;26;20607;-58
2024/04/08 04:58:51;;;;;;;1.10;1.00;;;17.70;52.00;213.40;229858.00;;;;5451081;26;20769;-58
2024/04/08 05:01:17;;;;;;;0.70;0.70;;;17.70;52.00;213.40;229858.00;;;;5452488;26;20306;-59
2024/04/08 05:03:45;;;;;;;1.53;1.10;;;17.70;52.00;213.40;229858.00;;;;5452275;26;20800;-58
2024/04/08 05:06:14;;;;;;;1.10;1.00;;;17.70;52.00;213.40;229858.00;;;;5443742;26;20273;-58
2024/04/08 05:08:43;;;;;;;1.03;1.00;;;17.70;52.00;213.40;229858.00;;;;5451115;26;20376;-58
2024/04/08 05:11:09;;;;;;;1.03;1.00;;;17.70;52.00;213.40;229858.00;;;;5443868;26;20254;-58
2024/04/08 05:13:38;;;;;;;1.30;1.10;;;17.70;52.00;213.40;229858.00;;;;5452446;26;20334;-58
2024/04/08 05:16:05;;;;;;;0.90;0.90;;;17.70;52.00;213.40;229858.00;;;;5452366;26;20234;-58
2024/04/08 05:18:34;;;;;;;1.23;1.10;;;17.70;52.00;213.40;229858.00;;;;5450991;26;20716;-58
2024/04/08 05:21:01;;;;;;;0.90;0.90;;;17.60;51.90;213.40;229858.00;;;;5449847;26;20349;-58
2024/04/08 05:23:32;;;;;;;1.37;0.83;;;17.60;51.90;213.40;229858.00;;;;5451981;26;20729;-58
2024/04/08 05:25:58;;;;;;;1.00;1.00;;;17.60;51.90;213.40;229858.00;;;;5443747;26;20268;-58
2024/04/08 05:28:27;;;;;;;0.90;0.90;;;17.60;51.90;213.40;229858.00;;;;5450919;26;20277;-58
2024/04/08 05:30:53;;;;;;;1.07;1.00;;;17.60;51.90;213.40;229858.00;;;;5451792;26;20305;-59
2024/04/08 05:33:22;;;;;;;1.27;1.17;;;17.60;51.90;213.40;229858.00;;;;5451808;26;20718;-58
2024/04/08 05:35:48;;;;;;;1.03;1.00;;;17.60;51.90;213.40;229858.00;;;;5449023;26;20249;-58
2024/04/08 05:38:17;;;;;;;1.03;1.03;;;17.60;51.90;213.40;229858.00;;;;5450698;26;20273;-59
2024/04/08 05:40:46;;;;;;;1.00;1.00;;;17.60;51.90;213.40;229858.00;;;;5443502;26;20309;-58
2024/04/08 05:43:16;;;;;;;1.20;1.10;;;17.70;51.90;213.40;229858.00;;;;5451493;26;20234;-59
2024/04/08 05:45:43;;;;;;;1.00;1.00;;;17.70;51.90;213.40;229858.00;;;;5451476;26;20243;-58
2024/04/08 05:48:11;;;;;;;0.97;0.97;;;17.70;51.90;213.40;229858.00;;;;5450405;26;20589;-59
2024/04/08 05:50:37;;;;;;;0.80;0.80;;;17.70;51.90;213.40;229858.00;;;;5449355;26;20354;-58
2024/04/08 05:53:06;;;;;;;1.07;1.03;;;17.70;51.90;213.40;229858.00;;;;5450691;26;20273;-59
2024/04/08 05:55:33;;;;;;;1.03;1.03;;;17.60;52.50;213.40;229858.00;;;;5443720;26;20868;-58
2024/04/08 05:58:05;;;;;;;1.03;1.03;;;17.60;51.80;213.40;229858.00;;;;5450257;26;20347;-58
2024/04/08 06:00:32;;;;;;;1.10;1.00;;;17.70;51.80;213.40;229858.00;;;;5450998;26;20238;-58
2024/04/08 06:03:01;;;;;;;1.37;1.27;;;17.70;51.80;213.40;229858.00;;;;5451166;26;20233;-58
2024/04/08 06:05:27;;;;;;;1.20;1.10;;;17.70;51.80;213.40;229858.00;;;;5447034;26;20351;-58
2024/04/08 06:07:56;;;;;;;1.43;1.33;;;17.70;51.80;213.40;229858.00;;;;5449972;26;20674;-58
2024/04/08 06:10:25;;;;;;;1.10;1.00;;;17.70;51.70;213.40;229858.00;;;;5443482;26;20302;-58
2024/04/08 06:12:55;;;;;;;1.30;1.20;;;17.70;51.70;213.40;229858.00;;;;5436457;26;20230;-59
2024/04/08 06:15:23;;;;;;;1.47;1.30;;;17.80;51.70;213.40;229858.00;;;;5451029;26;20342;-58
2024/04/08 06:17:52;;;;;;;0.90;0.90;;;17.80;51.60;213.40;229858.00;;;;5450172;26;20251;-59
2024/04/08 06:20:18;;;;;;;1.00;1.00;;;17.80;51.60;213.40;229858.00;;;;5440941;26;20245;-58
2024/04/08 06:22:47;;;;;;;1.20;1.10;;;17.80;51.60;213.40;229858.00;;;;5450690;26;20268;-58
2024/04/08 06:25:14;;;;;;;1.00;1.00;;;17.80;51.50;213.40;229858.00;;;;5445691;26;20808;-58
2024/04/08 06:27:42;;;;;;;1.30;1.20;;;17.90;51.60;213.40;229858.00;;;;5446893;26;20338;-58
2024/04/08 06:30:11;;;;;;;0.90;0.90;;;17.80;51.50;213.40;229858.00;;;;5450548;26;20293;-58
2024/04/08 06:32:43;;;;;;;0.90;0.90;;;17.90;51.50;213.40;229858.00;;;;5450659;26;20238;-58
2024/04/08 06:35:09;;;;;;;0.97;0.90;;;17.90;51.50;213.40;229858.00;;;;5440168;26;20283;-58
2024/04/08 06:37:38;;;;;;;1.60;1.20;;;17.90;51.40;213.40;229858.00;;;;5445574;26;20246;-58
2024/04/08 06:40:06;;;;;;;1.00;1.00;;;17.90;51.40;213.40;229858.00;;;;5446763;26;20234;-58
2024/04/08 06:42:34;;;;;;;1.10;1.10;;;17.90;51.40;213.40;229858.00;;;;5445342;26;20290;-58
2024/04/08 06:45:00;;;;;;;0.90;0.90;;;18.00;51.40;213.40;229858.00;;;;5450544;26;20282;-58
2024/04/08 06:47:29;;;;;;;1.13;1.10;;;18.00;51.30;213.40;229858.00;;;;5449711;26;20831;-58
2024/04/08 06:49:57;;;;;;;1.30;1.20;;;18.00;51.30;213.40;229858.00;;;;5439988;26;20235;-59
2024/04/08 06:52:26;;;;;;;1.70;1.10;;;18.00;51.30;213.40;229858.00;;;;5450412;26;20293;-58
2024/04/08 06:54:52;;;;;;;1.30;1.20;;;18.00;51.20;213.40;229858.00;;;;5448962;26;20234;-59
2024/04/08 06:57:21;;;;;;;1.00;1.00;;;18.00;51.20;213.40;229858.00;;;;5441816;26;20363;-59
2024/04/08 06:59:47;;;;;;;1.33;1.23;;;18.10;51.20;213.40;229858.00;;;;5449747;26;20273;-58
2024/04/08 07:02:16;;;;;;;1.20;1.10;;;18.10;51.20;213.40;229858.00;;;;5450269;26;20234;-58
2024/04/08 07:04:42;;;;;;;2.30;1.33;;;18.10;51.10;213.40;229858.00;;;;5449051;26;20277;-59
2024/04/08 07:07:13;;;;;;;1.33;1.00;;;18.10;51.10;213.40;229858.00;;;;5452991;26;20230;-59
2024/04/08 07:09:39;;;;;;;1.13;1.00;;;18.10;51.00;213.40;229858.00;;;;5452959;26;20306;-59
2024/04/08 07:12:09;;;;;;;1.30;1.20;;;18.20;50.90;213.40;229858.00;;;;5444051;26;20238;-58
2024/04/08 07:14:35;;;;;;;1.13;1.03;;;18.20;50.80;213.40;229858.00;;;;5453692;26;20277;-58
2024/04/08 07:17:04;;;;;;;1.10;1.00;;;18.20;50.80;213.40;229858.00;;;;5452976;26;20239;-59
2024/04/08 07:19:30;;;;;;;0.90;0.90;;;18.30;50.80;213.40;229858.00;;;;5441168;26;20291;-59
2024/04/08 07:21:58;;;;;;;1.10;1.00;;;18.30;50.70;213.40;229858.00;;;;5438426;26;20799;-59
2024/04/08 07:24:27;;;;;;;1.63;1.20;;;18.30;50.70;213.40;229858.00;;;;5453567;26;20348;-58
2024/04/08 07:26:56;;;;;;;1.23;1.00;;;18.30;50.60;213.40;229858.00;;;;5451554;26;20695;-59
2024/04/08 07:29:22;;;;;;;1.20;1.10;;;18.30;50.60;213.40;229858.00;;;;5453327;26;20277;-59
2024/04/08 07:31:50;;;;;;;1.10;1.00;;;18.30;50.60;213.40;229858.00;;;;5453143;26;20254;-59
2024/04/08 07:34:19;;;;;;;1.57;1.17;;;18.30;50.70;213.40;229858.00;;;;5452373;26;20616;-59
2024/04/08 07:36:48;;;;;;;1.20;1.10;;;18.30;50.70;213.40;229858.00;;;;5453033;26;20273;-59
2024/04/08 07:39:14;;;;;;;1.20;1.10;;;18.20;50.70;213.40;229858.00;;;;5452560;26;20282;-59
2024/04/08 07:41:45;;;;;;;1.97;1.10;;;18.30;50.70;213.40;229858.00;;;;5443210;26;20250;-59
2024/04/08 07:44:11;;;;;;;1.00;1.00;;;18.30;50.70;213.40;229858.00;;;;5453634;26;20246;-58
2024/04/08 07:46:40;;;;;;;1.13;1.03;;;18.30;50.70;213.40;229858.00;;;;5453177;26;20297;-58
2024/04/08 07:49:07;;;;;;;1.93;0.90;;;18.30;50.70;213.40;229858.00;;;;5451356;26;20297;-58
2024/04/08 07:51:36;;;;;;;0.83;0.83;;;18.30;50.70;213.40;229858.00;;;;5453068;26;20238;-59
2024/04/08 07:54:02;;;;;;;1.17;1.10;;;18.30;50.70;213.40;229858.00;;;;5453254;26;20558;-58
2024/04/08 07:56:31;;;;;;;1.20;1.10;;;18.30;50.70;213.40;229858.00;;;;5442342;26;20235;-58
2024/04/08 07:58:59;;;;;;;1.10;1.00;;;18.30;50.70;213.40;229858.00;;;;5451955;26;20306;-58
2024/04/08 08:01:28;;;;;;;1.13;1.10;;;18.30;50.70;213.40;229858.00;;;;5452775;26;20253;-58
2024/04/08 08:03:54;;;;;;;1.23;1.13;;;18.30;50.70;213.40;229858.00;;;;5452373;26;20298;-58
2024/04/08 08:06:23;;;;;;;0.93;0.90;;;18.30;50.70;213.40;229858.00;;;;5444158;26;20328;-58
2024/04/08 08:08:52;;;;;;;0.90;0.90;;;18.30;50.80;213.40;229858.00;;;;5451692;26;20322;-58
2024/04/08 08:11:20;;;;;;;1.20;1.10;;;18.30;50.80;213.40;229858.00;;;;5442234;26;20379;-59
2024/04/08 08:13:49;;;;;;;1.33;1.07;;;18.30;50.70;213.40;229858.00;;;;5452760;26;20303;-58
2024/04/08 08:16:20;;;;;;;1.60;1.00;;;18.30;50.70;213.40;229858.00;;;;5452596;26;20282;-58
2024/04/08 08:18:49;;;;;;;1.10;1.07;;;18.30;50.70;213.40;229858.00;;;;5451945;26;20246;-58
2024/04/08 08:21:18;;;;;;;1.17;0.93;;;18.30;50.70;213.40;229858.00;;;;5451777;26;20565;-59
2024/04/08 08:23:46;;;;;;;1.10;1.10;;;18.30;50.70;213.40;229858.00;;;;5453011;26;21046;-59
2024/04/08 08:26:15;;;;;;;0.93;0.93;;;18.30;50.60;213.40;229858.00;;;;5441765;26;20344;-58
2024/04/08 08:28:41;;;;;;;1.13;1.00;;;18.30;50.70;213.40;229858.00;;;;5451564;26;20254;-58
2024/04/08 08:31:10;;;;;;;1.20;1.10;;;18.30;50.70;213.40;229858.00;;;;5452869;26;20253;-59
2024/04/08 08:33:41;;;;;;;1.17;1.10;;;18.30;50.60;213.40;229858.00;;;;5452338;26;20290;-59
2024/04/08 08:36:07;;;;;;;1.10;1.00;;;18.40;51.00;213.40;229858.00;;;;5450115;26;20237;-58
2024/04/08 08:38:36;;;;;;;1.17;1.17;;;18.40;50.50;213.40;229858.00;;;;5451507;26;20230;-58
2024/04/08 08:41:06;;;;;;;1.00;1.00;;;18.40;50.50;213.40;229858.00;;;;5440652;26;20242;-58
2024/04/08 08:43:37;;;;;;;1.30;1.20;;;18.40;50.40;213.40;229858.00;;;;5452400;26;20269;-58
2024/04/08 08:46:04;;;;;;;1.20;1.03;;;18.40;50.40;213.40;229858.00;;;;5452385;26;20264;-58
2024/04/08 08:48:32;;;;;;;1.03;1.03;;;18.40;50.40;213.40;229858.00;;;;5451426;26;20268;-58
2024/04/08 08:51:04;;;;;;;1.30;1.20;;;18.50;50.40;213.40;229858.00;;;;5440242;26;20818;-58
2024/04/08 08:53:33;;;;;;;1.10;1.00;;;18.50;50.30;213.40;229858.00;;;;5452412;26;20258;-58
2024/04/08 08:56:02;;;;;;;0.80;0.80;;;18.50;50.20;213.40;229858.00;;;;5440185;26;20383;-59
2024/04/08 08:58:32;;;;;;;0.90;0.90;;;18.60;50.20;213.40;229858.00;;;;5451377;26;20238;-59
2024/04/08 09:00:58;;;;;;;1.00;1.00;;;18.50;50.10;213.40;229858.00;;;;5452254;26;20306;-59
2024/04/08 09:03:33;;;;;;;1.00;0.90;;;18.60;50.10;213.40;229858.00;;;;5452093;26;20237;-58
2024/04/08 09:06:02;;;;;;;0.80;0.80;;;18.60;50.00;213.40;229858.00;;;;5436735;26;20719;-58
2024/04/08 09:08:32;;;;;;;1.10;1.00;;;18.60;50.00;213.40;229858.00;;;;5451166;26;20361;-59
2024/04/08 09:10:58;;;;;;;1.37;1.27;;;18.60;50.00;213.40;229858.00;;;;5440751;26;20235;-59
2024/04/08 09:13:29;;;;;;;1.10;1.00;;;18.60;50.60;213.40;229858.00;;;;5452025;26;20277;-59
2024/04/08 09:15:55;;;;;;;1.00;1.00;;;18.60;49.90;213.40;229858.00;;;;5451828;26;20243;-58
2024/04/08 09:18:24;;;;;;;0.90;0.90;;;18.60;50.00;213.40;229858.00;;;;5447980;26;20330;-58
2024/04/08 09:20:51;;;;;;;1.20;1.10;;;18.60;50.60;213.40;229858.00;;;;5451453;26;20773;-58
2024/04/08 09:23:22;;;;;;;1.10;1.00;;;18.60;50.00;213.40;229858.00;;;;5451847;26;20277;-59
2024/04/08 09:25:48;;;;;;;1.10;1.00;;;18.60;49.90;213.40;229858.00;;;;5439786;26;20314;-59
2024/04/08 09:28:17;;;;;;;1.13;1.03;;;18.60;50.00;213.40;229858.00;;;;5449662;26;20246;-59
2024/04/08 09:30:44;;;;;;;0.80;0.80;;;18.70;50.00;213.40;229858.00;;;;5451395;26;20390;-59
2024/04/08 09:33:15;;;;;;;0.97;0.97;;;18.60;50.00;213.40;229858.00;;;;5451606;26;20291;-58
2024/04/08 09:35:43;;;;;;;1.00;0.93;;;18.70;50.10;213.40;229858.00;;;;5448020;26;20731;-59
2024/04/08 09:38:13;;;;;;;1.10;1.00;;;18.60;50.00;213.40;229858.00;;;;5450665;26;20656;-59
2024/04/08 09:40:43;;;;;;;1.03;0.80;;;18.60;50.00;213.40;229858.00;;;;5439805;26;20381;-58
2024/04/08 09:43:13;;;;;;;0.90;0.90;;;18.60;50.00;213.40;229858.00;;;;5437326;26;20302;-59
2024/04/08 09:45:41;;;;;;;1.10;1.00;;;18.60;50.00;213.40;229858.00;;;;5451865;26;20738;-58
2024/04/08 09:48:15;;;;;;;1.00;1.00;;;18.60;50.00;213.40;229858.00;;;;5435942;26;20306;-59
2024/04/08 09:50:41;;;;;;;0.90;0.90;;;18.60;50.00;213.40;229858.00;;;;5439519;26;20236;-59
2024/04/08 09:53:11;;;;;;;1.00;1.00;;;18.70;50.10;213.40;229858.00;;;;5436560;26;20382;-59
2024/04/08 09:55:45;;;;;;;0.90;0.90;;;18.70;50.10;213.40;229858.00;;;;5440408;26;20289;-58
2024/04/08 09:58:17;;;;;;;1.10;1.00;;;18.70;50.10;213.40;229858.00;;;;5436326;26;20237;-58
2024/04/08 10:00:46;;;;;;;1.20;1.10;;;18.70;50.10;213.40;229858.00;;;;5451333;26;20294;-58
2024/04/08 10:03:19;;;;;;;0.93;0.93;;;18.70;50.10;213.40;229858.00;;;;5451530;26;20341;-58
2024/04/08 10:05:46;;;;;;;0.93;0.90;;;18.70;50.10;213.40;229858.00;;;;5439301;26;20301;-59
2024/04/08 10:08:16;;;;;;;0.93;0.90;;;18.70;50.10;213.40;229858.00;;;;5450622;26;20243;-59
2024/04/08 10:10:44;;;;;;;0.90;0.90;;;18.70;50.10;213.40;229858.00;;;;5438486;26;20314;-59
2024/04/08 10:13:13;;;;;;;0.93;0.93;;;18.70;50.00;213.40;229858.00;;;;5436443;26;20545;-58
2024/04/08 10:15:39;;;;;;;1.00;1.00;;;18.70;50.00;213.40;229858.00;;;;5451134;26;20238;-58
2024/04/08 10:18:09;;;;;;;1.20;1.10;;;18.70;50.00;213.40;229858.00;;;;5449813;26;20318;-58
2024/04/08 10:20:40;;;;;;;1.33;1.17;;;18.70;50.00;213.40;229858.00;;;;5443140;26;20289;-59
2024/04/08 10:23:09;;;;;;;1.03;1.03;;;18.70;50.00;213.40;229858.00;;;;5451053;26;20234;-59
2024/04/08 10:25:37;;;;;;;0.90;0.90;;;18.70;50.00;213.40;229858.00;;;;5439573;26;20295;-59
2024/04/08 10:28:10;;;;;;;1.00;1.00;;;18.80;50.00;213.40;229858.00;;;;5448369;26;20241;-59
2024/04/08 10:30:38;;;;;;;1.60;1.10;;;18.80;50.00;213.40;229858.00;;;;5450622;26;20246;-59
2024/04/08 10:33:08;;;;;;;0.93;0.93;;;18.80;50.00;213.40;229858.00;;;;5451058;26;20250;-59
2024/04/08 10:35:34;;;;;;;0.80;0.80;;;18.80;50.00;213.40;229858.00;;;;5442611;26;20300;-58
2024/04/08 10:38:02;;;;;;;0.90;0.90;;;18.80;49.90;213.40;229858.00;;;;5449453;26;20236;-58
2024/04/08 10:40:28;;;;;;;1.07;0.97;;;18.80;49.90;213.40;229858.00;;;;5444192;26;20316;-58
2024/04/08 10:42:58;;;;;;;0.90;0.90;;;18.80;49.90;213.40;229858.00;;;;5450094;26;20252;-58